Hiyodori — JD2366 — position and weather

sailwx.info

Track history (hours):
 
Tides and Currents Weather Stations Pressure Air Temp Water Temp Dewpoint Dewpoint Depression Visibility Wind Speed Wind Dir Waves Ship Positions

Hiyodori

Last reported at 2016-Jul-27 14:22 UTC. Time now 2016-Jul-29 14:05 UTC.
Position N 34°54' E 139°24'.

Length 88 m; draft 3.6 m.

Type: Cargo ship. MMSI: 431000132.

Date/timePositionNaut miles runAvg speedWind from/ knotsBaromVisibWave heightAir tempDewpointWater temp
2016-Jul-27 14:22N 34°54' E 139°24'1012.2
2016-Jul-27 13:33N 35°01' E 139°33'1212.1
2016-Jul-27 12:33N 35°09' E 139°44'1110.6
2016-Jul-27 11:33N 35°20' E 139°42'7 6.3
2016-Jul-27 10:32N 35°26' E 139°41'0 0.0
2016-Jul-27 09:32N 35°26' E 139°41'0 0.0
2016-Jul-27 08:32N 35°26' E 139°41'0 0.0
2016-Jul-27 07:32N 35°26' E 139°41'0 0.0
2016-Jul-27 06:32N 35°26' E 139°41'0 0.0
2016-Jul-27 05:29N 35°26' E 139°41'1 0.8
2016-Jul-27 04:33N 35°27' E 139°41'8 8.3
2016-Jul-27 03:33N 35°31' E 139°50'6 6.4
2016-Jul-27 02:33N 35°37' E 139°46'0 0.0
2016-Jul-27 01:34N 35°37' E 139°46'0 0.0
2016-Jul-27 00:34N 35°37' E 139°46'0 0.0
2016-Jul-26 23:33N 35°37' E 139°46'7 6.8
2016-Jul-26 22:34N 35°33' E 139°53'0 0.1
2016-Jul-26 21:32N 35°33' E 139°53'0 0.0
2016-Jul-26 20:29N 35°33' E 139°53'0 0.0
2016-Jul-26 19:32N 35°33' E 139°53'0 0.0
2016-Jul-26 18:32N 35°33' E 139°53'0 0.0
2016-Jul-26 17:32N 35°33' E 139°53'0 0.0
2016-Jul-26 16:32N 35°33' E 139°53'0 0.0
2016-Jul-26 15:32N 35°33' E 139°53'0 0.0
2016-Jul-26 14:32N 35°33' E 139°53'0 0.0
2016-Jul-26 13:32N 35°33' E 139°53'0 0.1
2016-Jul-26 12:32N 35°33' E 139°53'0 0.0
2016-Jul-26 11:29N 35°33' E 139°53'0 0.0
2016-Jul-26 10:32N 35°33' E 139°53'0 0.0
2016-Jul-26 09:32N 35°33' E 139°53'0 0.0
2016-Jul-26 08:32N 35°33' E 139°53'0 0.0
2016-Jul-26 07:32N 35°33' E 139°53'6 5.7
2016-Jul-26 06:33N 35°36' E 139°47'1 0.9
2016-Jul-26 05:32N 35°36' E 139°46'0 0.0
2016-Jul-26 04:32N 35°36' E 139°46'7 7.4
2016-Jul-26 03:33N 35°32' E 139°53'1010.3
2016-Jul-26 02:34N 35°23' E 139°46'1110.9
2016-Jul-26 01:33N 35°12' E 139°47'  
2016-Jul-23 11:32N 34°58' E 139°26'1313.1
2016-Jul-23 10:32N 35°06' E 139°39'1211.9
2016-Jul-23 09:33N 35°16' E 139°46'9 8.7
2016-Jul-23 08:31N 35°24' E 139°41'0 0.0
2016-Jul-23 07:31N 35°24' E 139°41'0 0.2
2016-Jul-23 06:33N 35°24' E 139°41'4 2.0
2016-Jul-23 04:34N 35°23' E 139°45'1110.8
2016-Jul-23 03:33N 35°12' E 139°47'1110.7
2016-Jul-23 02:32N 35°02' E 139°40'237 5.8
2016-Jul-21 09:33N 34°07' E 134°60'1312.9
2016-Jul-21 08:33N 34°20' E 134°60'1312.7
2016-Jul-21 07:33N 34°30' E 135°10'1212.1
2016-Jul-21 06:33N 34°40' E 135°18'2 2.0
2016-Jul-21 05:32N 34°41' E 135°17'3 2.4
2016-Jul-21 04:23N 34°39' E 135°20'0 0.0
2016-Jul-21 03:17N 34°39' E 135°19'0 0.1
2016-Jul-21 02:29N 34°39' E 135°19'0 0.0
2016-Jul-21 01:29N 34°39' E 135°19'0 0.0
2016-Jul-21 00:29N 34°39' E 135°19'0 0.0
2016-Jul-20 23:29N 34°39' E 135°19'0 0.0
2016-Jul-20 22:29N 34°39' E 135°19'0 0.0
2016-Jul-20 21:29N 34°39' E 135°19'0 0.0
2016-Jul-20 20:29N 34°39' E 135°19'0 0.1
2016-Jul-20 19:33N 34°39' E 135°19'1110.6
2016-Jul-20 18:33N 34°31' E 135°12'2010.1
2016-Jul-20 16:33N 34°14' E 134°59'1211.8
2016-Jul-20 15:33N 34°02' E 135°00'17710.2
2016-Jul-19 22:14N 34°30' E 138°32'5112.2
2016-Jul-19 18:07N 34°57' E 139°24'611.5
2016-Jul-19 17:34N 35°01' E 139°31'1212.4
2016-Jul-19 16:33N 35°08' E 139°43'1110.7
2016-Jul-19 15:33N 35°19' E 139°43'6 5.7
2016-Jul-19 14:32N 35°24' E 139°41'0 0.0
2016-Jul-19 13:34N 35°24' E 139°41'9 9.4
2016-Jul-19 12:33N 35°30' E 139°50'7 6.5
2016-Jul-19 11:33N 35°36' E 139°46'0 0.0
2016-Jul-19 10:30N 35°36' E 139°46'3 3.0
2016-Jul-19 09:33N 35°34' E 139°49'4 3.7
2016-Jul-19 08:33N 35°34' E 139°53'0 0.0
2016-Jul-19 07:31N 35°34' E 139°53'0 0.0
2016-Jul-19 04:31N 35°34' E 139°53'0 0.0
2016-Jul-19 03:28N 35°34' E 139°53'0 0.0
2016-Jul-19 02:25N 35°34' E 139°53'0 0.0
2016-Jul-19 01:28N 35°34' E 139°53'4 4.3
2016-Jul-19 00:33N 35°31' E 139°50'9 9.2
2016-Jul-18 23:33N 35°29' E 139°39'0 0.1
2016-Jul-18 22:31N 35°29' E 139°39'0 0.0
2016-Jul-18 21:31N 35°29' E 139°39'0 0.0
2016-Jul-18 20:31N 35°29' E 139°39'0 0.0
2016-Jul-18 19:31N 35°29' E 139°39'0 0.0
2016-Jul-18 18:31N 35°29' E 139°39'0 0.0
2016-Jul-18 17:31N 35°29' E 139°39'0 0.0
2016-Jul-18 16:31N 35°29' E 139°39'0 0.0
2016-Jul-18 15:31N 35°29' E 139°39'0 0.0
2016-Jul-18 14:31N 35°29' E 139°39'0 0.0
2016-Jul-18 13:31N 35°29' E 139°39'0 0.0
2016-Jul-18 12:31N 35°29' E 139°39'0 0.0
2016-Jul-18 11:31N 35°29' E 139°39'0 0.0
2016-Jul-18 10:31N 35°29' E 139°39'0 0.0
2016-Jul-18 09:31N 35°29' E 139°39'0 0.0
2016-Jul-18 08:31N 35°29' E 139°39'0 0.0
2016-Jul-18 07:31N 35°29' E 139°39'0 0.0
2016-Jul-18 06:31N 35°29' E 139°39'0 0.0
2016-Jul-18 05:31N 35°29' E 139°39'0 0.0
2016-Jul-18 04:31N 35°29' E 139°39'0 0.0
2016-Jul-18 03:31N 35°29' E 139°39'0 0.0
2016-Jul-18 02:31N 35°29' E 139°39'0 0.0
2016-Jul-18 01:31N 35°29' E 139°39'0 0.0
2016-Jul-18 00:31N 35°29' E 139°39'0 0.0
2016-Jul-17 23:34N 35°29' E 139°39'7 6.3
2016-Jul-17 22:31N 35°24' E 139°44'0 0.0
2016-Jul-17 21:31N 35°24' E 139°44'0 0.1
2016-Jul-17 20:31N 35°24' E 139°45'0 0.0
2016-Jul-17 19:31N 35°24' E 139°45'0 0.0
2016-Jul-17 18:31N 35°24' E 139°45'0 0.1
2016-Jul-17 17:31N 35°24' E 139°45'0 0.0
2016-Jul-17 16:31N 35°24' E 139°45'0 0.0
2016-Jul-17 15:31N 35°24' E 139°45'0 0.0
2016-Jul-17 14:25N 35°24' E 139°45'  
Track history (hours):
 
Tides and Currents Weather Stations Pressure Air Temp Water Temp Dewpoint Dewpoint Depression Visibility Wind Speed Wind Dir Waves Ship Positions

Hiyodori

Last reported at 2016-Jul-27 14:22 UTC. Time now 2016-Jul-29 14:05 UTC.
Position N 34°54' E 139°24'.

Length 88 m; draft 3.6 m.

Type: Cargo ship. MMSI: 431000132.

Date/timePositionNaut miles runAvg speedWind from/ knotsBaromVisibWave heightAir tempDewpointWater temp
2016-Jul-27 14:22N 34°54' E 139°24'1012.2
2016-Jul-27 13:33N 35°01' E 139°33'1212.1
2016-Jul-27 12:33N 35°09' E 139°44'1110.6
2016-Jul-27 11:33N 35°20' E 139°42'7 6.3
2016-Jul-27 10:32N 35°26' E 139°41'0 0.0
2016-Jul-27 09:32N 35°26' E 139°41'0 0.0
2016-Jul-27 08:32N 35°26' E 139°41'0 0.0
2016-Jul-27 07:32N 35°26' E 139°41'0 0.0
2016-Jul-27 06:32N 35°26' E 139°41'0 0.0
2016-Jul-27 05:29N 35°26' E 139°41'1 0.8
2016-Jul-27 04:33N 35°27' E 139°41'8 8.3
2016-Jul-27 03:33N 35°31' E 139°50'6 6.4
2016-Jul-27 02:33N 35°37' E 139°46'0 0.0
2016-Jul-27 01:34N 35°37' E 139°46'0 0.0
2016-Jul-27 00:34N 35°37' E 139°46'0 0.0
2016-Jul-26 23:33N 35°37' E 139°46'7 6.8
2016-Jul-26 22:34N 35°33' E 139°53'0 0.1
2016-Jul-26 21:32N 35°33' E 139°53'0 0.0
2016-Jul-26 20:29N 35°33' E 139°53'0 0.0
2016-Jul-26 19:32N 35°33' E 139°53'0 0.0
2016-Jul-26 18:32N 35°33' E 139°53'0 0.0
2016-Jul-26 17:32N 35°33' E 139°53'0 0.0
2016-Jul-26 16:32N 35°33' E 139°53'0 0.0
2016-Jul-26 15:32N 35°33' E 139°53'0 0.0
2016-Jul-26 14:32N 35°33' E 139°53'0 0.0
2016-Jul-26 13:32N 35°33' E 139°53'0 0.1
2016-Jul-26 12:32N 35°33' E 139°53'0 0.0
2016-Jul-26 11:29N 35°33' E 139°53'0 0.0
2016-Jul-26 10:32N 35°33' E 139°53'0 0.0
2016-Jul-26 09:32N 35°33' E 139°53'0 0.0
2016-Jul-26 08:32N 35°33' E 139°53'0 0.0
2016-Jul-26 07:32N 35°33' E 139°53'6 5.7
2016-Jul-26 06:33N 35°36' E 139°47'1 0.9
2016-Jul-26 05:32N 35°36' E 139°46'0 0.0
2016-Jul-26 04:32N 35°36' E 139°46'7 7.4
2016-Jul-26 03:33N 35°32' E 139°53'1010.3
2016-Jul-26 02:34N 35°23' E 139°46'1110.9
2016-Jul-26 01:33N 35°12' E 139°47'  
2016-Jul-23 11:32N 34°58' E 139°26'1313.1
2016-Jul-23 10:32N 35°06' E 139°39'1211.9
2016-Jul-23 09:33N 35°16' E 139°46'9 8.7
2016-Jul-23 08:31N 35°24' E 139°41'0 0.0
2016-Jul-23 07:31N 35°24' E 139°41'0 0.2
2016-Jul-23 06:33N 35°24' E 139°41'4 2.0
2016-Jul-23 04:34N 35°23' E 139°45'1110.8
2016-Jul-23 03:33N 35°12' E 139°47'1110.7
2016-Jul-23 02:32N 35°02' E 139°40'237 5.8
2016-Jul-21 09:33N 34°07' E 134°60'1312.9
2016-Jul-21 08:33N 34°20' E 134°60'1312.7
2016-Jul-21 07:33N 34°30' E 135°10'1212.1
2016-Jul-21 06:33N 34°40' E 135°18'2 2.0
2016-Jul-21 05:32N 34°41' E 135°17'3 2.4
2016-Jul-21 04:23N 34°39' E 135°20'0 0.0
2016-Jul-21 03:17N 34°39' E 135°19'0 0.1
2016-Jul-21 02:29N 34°39' E 135°19'0 0.0
2016-Jul-21 01:29N 34°39' E 135°19'0 0.0
2016-Jul-21 00:29N 34°39' E 135°19'0 0.0
2016-Jul-20 23:29N 34°39' E 135°19'0 0.0
2016-Jul-20 22:29N 34°39' E 135°19'0 0.0
2016-Jul-20 21:29N 34°39' E 135°19'0 0.0
2016-Jul-20 20:29N 34°39' E 135°19'0 0.1
2016-Jul-20 19:33N 34°39' E 135°19'1110.6
2016-Jul-20 18:33N 34°31' E 135°12'2010.1
2016-Jul-20 16:33N 34°14' E 134°59'1211.8
2016-Jul-20 15:33N 34°02' E 135°00'17710.2
2016-Jul-19 22:14N 34°30' E 138°32'5112.2
2016-Jul-19 18:07N 34°57' E 139°24'611.5
2016-Jul-19 17:34N 35°01' E 139°31'1212.4
2016-Jul-19 16:33N 35°08' E 139°43'1110.7
2016-Jul-19 15:33N 35°19' E 139°43'6 5.7
2016-Jul-19 14:32N 35°24' E 139°41'0 0.0
2016-Jul-19 13:34N 35°24' E 139°41'9 9.4
2016-Jul-19 12:33N 35°30' E 139°50'7 6.5
2016-Jul-19 11:33N 35°36' E 139°46'0 0.0
2016-Jul-19 10:30N 35°36' E 139°46'3 3.0
2016-Jul-19 09:33N 35°34' E 139°49'4 3.7
2016-Jul-19 08:33N 35°34' E 139°53'0 0.0
2016-Jul-19 07:31N 35°34' E 139°53'0 0.0
2016-Jul-19 04:31N 35°34' E 139°53'0 0.0
2016-Jul-19 03:28N 35°34' E 139°53'0 0.0
2016-Jul-19 02:25N 35°34' E 139°53'0 0.0
2016-Jul-19 01:28N 35°34' E 139°53'4 4.3
2016-Jul-19 00:33N 35°31' E 139°50'9 9.2
2016-Jul-18 23:33N 35°29' E 139°39'0 0.1
2016-Jul-18 22:31N 35°29' E 139°39'0 0.0
2016-Jul-18 21:31N 35°29' E 139°39'0 0.0
2016-Jul-18 20:31N 35°29' E 139°39'0 0.0
2016-Jul-18 19:31N 35°29' E 139°39'0 0.0
2016-Jul-18 18:31N 35°29' E 139°39'0 0.0
2016-Jul-18 17:31N 35°29' E 139°39'0 0.0
2016-Jul-18 16:31N 35°29' E 139°39'0 0.0
2016-Jul-18 15:31N 35°29' E 139°39'0 0.0
2016-Jul-18 14:31N 35°29' E 139°39'0 0.0
2016-Jul-18 13:31N 35°29' E 139°39'0 0.0
2016-Jul-18 12:31N 35°29' E 139°39'0 0.0
2016-Jul-18 11:31N 35°29' E 139°39'0 0.0
2016-Jul-18 10:31N 35°29' E 139°39'0 0.0
2016-Jul-18 09:31N 35°29' E 139°39'0 0.0
2016-Jul-18 08:31N 35°29' E 139°39'0 0.0
2016-Jul-18 07:31N 35°29' E 139°39'0 0.0
2016-Jul-18 06:31N 35°29' E 139°39'0 0.0
2016-Jul-18 05:31N 35°29' E 139°39'0 0.0
2016-Jul-18 04:31N 35°29' E 139°39'0 0.0
2016-Jul-18 03:31N 35°29' E 139°39'0 0.0
2016-Jul-18 02:31N 35°29' E 139°39'0 0.0
2016-Jul-18 01:31N 35°29' E 139°39'0 0.0
2016-Jul-18 00:31N 35°29' E 139°39'0 0.0
2016-Jul-17 23:34N 35°29' E 139°39'7 6.3
2016-Jul-17 22:31N 35°24' E 139°44'0 0.0
2016-Jul-17 21:31N 35°24' E 139°44'0 0.1
2016-Jul-17 20:31N 35°24' E 139°45'0 0.0
2016-Jul-17 19:31N 35°24' E 139°45'0 0.0
2016-Jul-17 18:31N 35°24' E 139°45'0 0.1
2016-Jul-17 17:31N 35°24' E 139°45'0 0.0
2016-Jul-17 16:31N 35°24' E 139°45'0 0.0
2016-Jul-17 15:31N 35°24' E 139°45'0 0.0
2016-Jul-17 14:25N 35°24' E 139°45'  

Dump ship's entire track history